createdAt,value
2022-12-18T00:02:53.780Z,0.46
2022-12-18T00:05:57.844Z,0.38
2022-12-18T00:09:02.254Z,0.53
2022-12-18T00:15:18.351Z,0.53
2022-12-18T00:18:20.921Z,0.51
2022-12-18T00:21:24.859Z,0.59
2022-12-18T00:24:27.461Z,0.67
2022-12-18T00:27:29.956Z,0.69
2022-12-18T00:30:32.588Z,0.66
2022-12-18T00:33:36.960Z,0.63
2022-12-18T00:36:42.018Z,0.59
2022-12-18T00:39:44.852Z,0.71
2022-12-18T00:42:59.269Z,0.73
2022-12-18T00:46:01.968Z,0.82
2022-12-18T00:49:04.519Z,0.79
2022-12-18T00:52:08.781Z,0.61
2022-12-18T00:55:12.116Z,0.65
2022-12-18T00:58:17.029Z,0.68
2022-12-18T01:01:19.883Z,0.71
2022-12-18T01:04:22.659Z,0.77
2022-12-18T01:07:26.536Z,0.86
2022-12-18T01:10:29.084Z,0.80
2022-12-18T01:13:33.626Z,0.90
2022-12-18T01:16:36.222Z,0.81
2022-12-18T01:19:41.121Z,0.87
2022-12-18T01:22:47.659Z,0.83
2022-12-18T01:25:50.247Z,0.88
2022-12-18T01:28:54.742Z,0.87
2022-12-18T01:31:59.243Z,0.92
2022-12-18T01:35:01.957Z,1.04
2022-12-18T01:38:06.140Z,0.99
2022-12-18T01:41:09.531Z,0.86
2022-12-18T01:44:45.306Z,0.90
2022-12-18T01:47:50.561Z,0.86
2022-12-18T01:50:53.285Z,0.91
2022-12-18T01:53:58.470Z,1.02
2022-12-18T01:57:02.015Z,0.90
2022-12-18T02:00:08.200Z,1.00
2022-12-18T02:03:16.795Z,0.90
2022-12-18T02:06:28.525Z,0.95
2022-12-18T02:09:38.001Z,1.10
2022-12-18T02:12:46.464Z,1.08
2022-12-18T02:15:58.746Z,0.99
2022-12-18T02:19:06.819Z,1.05
2022-12-18T02:22:21.330Z,1.14
2022-12-18T02:25:41.269Z,1.06
2022-12-18T02:28:50.301Z,1.03
2022-12-18T02:31:55.311Z,0.98
2022-12-18T02:35:00.299Z,0.96
2022-12-18T02:38:05.680Z,0.93
2022-12-18T02:41:12.666Z,0.73
2022-12-18T02:44:16.758Z,0.82
2022-12-18T02:47:22.704Z,0.79
2022-12-18T02:50:32.769Z,0.80
2022-12-18T02:53:42.383Z,0.49
2022-12-18T02:56:52.023Z,0.33
2022-12-18T03:00:03.632Z,0.13
2022-12-18T03:03:12.223Z,-0.02
2022-12-18T03:06:24.302Z,-0.08
2022-12-18T03:09:33.130Z,-0.30
2022-12-18T03:12:38.105Z,-0.46
2022-12-18T03:15:46.444Z,-0.48
2022-12-18T03:18:54.821Z,-0.68
2022-12-18T03:21:59.634Z,-0.74
2022-12-18T03:25:06.103Z,-0.86
2022-12-18T03:28:14.147Z,-0.90
2022-12-18T03:31:23.398Z,-0.96
2022-12-18T03:34:31.797Z,-1.03
2022-12-18T03:37:37.839Z,-1.14
2022-12-18T03:40:57.938Z,-1.27
2022-12-18T03:44:08.623Z,-1.27
2022-12-18T03:47:16.466Z,-1.26
2022-12-18T03:50:27.276Z,-1.35
2022-12-18T03:53:41.359Z,-1.36
2022-12-18T03:56:49.303Z,-1.37
2022-12-18T03:59:57.299Z,-1.33
2022-12-18T04:03:06.968Z,-1.22
2022-12-18T04:06:18.500Z,-1.23
2022-12-18T04:09:22.094Z,-1.34
2022-12-18T04:12:26.073Z,-1.43
2022-12-18T04:15:29.015Z,-1.33
2022-12-18T04:18:34.157Z,-1.34
2022-12-18T04:21:37.844Z,-1.37
2022-12-18T04:24:40.869Z,-1.33
2022-12-18T04:27:50.635Z,-1.34
2022-12-18T04:30:53.929Z,-1.43
2022-12-18T04:33:59.609Z,-1.51
2022-12-18T04:37:02.396Z,-1.65
2022-12-18T04:40:06.957Z,-1.63
2022-12-18T04:43:16.185Z,-1.64
2022-12-18T04:46:18.770Z,-1.53
2022-12-18T04:49:22.713Z,-1.58
2022-12-18T04:52:25.316Z,-1.65
2022-12-18T04:55:28.460Z,-1.67
2022-12-18T04:58:31.068Z,-1.66
2022-12-18T05:01:35.364Z,-1.69
2022-12-18T05:04:40.685Z,-1.83
2022-12-18T05:07:43.245Z,-1.80
2022-12-18T05:10:45.847Z,-1.90
2022-12-18T05:13:48.771Z,-1.99
2022-12-18T05:16:51.366Z,-2.15
2022-12-18T05:19:55.327Z,-2.24
2022-12-18T05:22:57.962Z,-2.22
2022-12-18T05:26:02.057Z,-2.17
2022-12-18T05:29:04.715Z,-2.19
2022-12-18T05:32:07.202Z,-2.25
2022-12-18T05:35:12.274Z,-2.26
2022-12-18T05:38:14.943Z,-2.25
2022-12-18T05:41:17.591Z,-2.21
2022-12-18T05:44:20.082Z,-2.27
2022-12-18T05:47:22.590Z,-2.37
2022-12-18T05:50:26.582Z,-2.36
2022-12-18T05:53:29.257Z,-2.37
2022-12-18T05:56:31.824Z,-2.36
2022-12-18T05:59:34.892Z,-2.40
2022-12-18T06:02:37.591Z,-2.49
2022-12-18T06:05:43.161Z,-2.45
2022-12-18T06:08:46.919Z,-2.47
2022-12-18T06:11:49.701Z,-2.50
2022-12-18T06:14:52.178Z,-2.49
2022-12-18T06:17:54.742Z,-2.50
2022-12-18T06:20:59.746Z,-2.41
2022-12-18T06:24:02.320Z,-2.28
2022-12-18T06:27:04.897Z,-2.30
2022-12-18T06:30:08.900Z,-2.26
2022-12-18T06:33:11.486Z,-2.33
2022-12-18T06:36:15.666Z,-2.28
2022-12-18T06:39:18.315Z,-2.28
2022-12-18T06:42:20.875Z,-2.28
2022-12-18T06:45:23.393Z,-2.20
2022-12-18T06:48:25.920Z,-2.09
2022-12-18T06:51:30.463Z,-2.10
2022-12-18T06:54:32.991Z,-2.01
2022-12-18T06:57:35.610Z,-2.02
2022-12-18T07:00:38.246Z,-1.99
2022-12-18T07:03:42.504Z,-1.94
2022-12-18T07:06:46.892Z,-1.76
2022-12-18T07:09:50.792Z,-1.54
2022-12-18T07:12:53.336Z,-1.41
2022-12-18T07:15:55.889Z,-1.28
2022-12-18T07:18:58.484Z,-1.04
2022-12-18T07:22:02.742Z,-0.83
2022-12-18T07:25:07.314Z,-0.61
2022-12-18T07:28:15.680Z,-0.08
2022-12-18T07:31:22.094Z,0.09
2022-12-18T07:34:24.870Z,0.33
2022-12-18T07:37:30.095Z,0.67
2022-12-18T07:40:33.037Z,0.94
2022-12-18T07:43:36.869Z,1.13
2022-12-18T07:46:40.057Z,1.21
2022-12-18T07:49:42.840Z,1.43
2022-12-18T07:52:46.860Z,1.38
2022-12-18T07:56:24.886Z,1.85
2022-12-18T07:59:12.016Z,2.30
2022-12-18T08:02:14.744Z,2.69
2022-12-18T08:05:17.796Z,2.88
2022-12-18T08:08:21.651Z,2.70
2022-12-18T08:11:26.559Z,2.42
2022-12-18T08:14:29.549Z,2.34
2022-12-18T08:17:32.167Z,2.72
2022-12-18T08:20:34.791Z,3.03
2022-12-18T08:23:42.658Z,2.78
2022-12-18T08:27:06.740Z,2.94
2022-12-18T08:30:10.496Z,3.16
2022-12-18T08:33:13.227Z,3.01
2022-12-18T08:36:15.766Z,3.49
2022-12-18T08:39:19.843Z,4.08
2022-12-18T08:42:40.737Z,4.89
2022-12-18T08:45:43.315Z,5.80
2022-12-18T08:48:46.416Z,5.71
2022-12-18T08:51:49.399Z,6.01
2022-12-18T08:54:53.375Z,6.10
2022-12-18T08:57:55.961Z,6.50
2022-12-18T09:01:01.232Z,5.99
2022-12-18T09:04:04.535Z,5.50
2022-12-18T09:07:08.627Z,4.76
2022-12-18T09:10:13.218Z,4.64
2022-12-18T09:13:17.486Z,4.52
2022-12-18T09:16:20.793Z,4.22
2022-12-18T09:19:23.611Z,4.49
2022-12-18T09:22:26.378Z,4.36
2022-12-18T09:25:36.659Z,4.43
2022-12-18T09:28:39.819Z,4.17
2022-12-18T09:31:42.879Z,4.34
2022-12-18T09:34:45.465Z,4.72
2022-12-18T09:37:48.117Z,4.96
2022-12-18T09:40:53.939Z,5.22
2022-12-18T09:44:01.576Z,6.12
2022-12-18T09:47:14.212Z,6.58
2022-12-18T09:50:25.872Z,7.04
2022-12-18T09:53:34.096Z,7.19
2022-12-18T09:56:42.434Z,6.96
2022-12-18T09:59:50.015Z,7.25
2022-12-18T10:02:54.211Z,7.86
2022-12-18T10:06:07.644Z,8.00
2022-12-18T10:09:20.250Z,8.07
2022-12-18T10:12:30.791Z,8.12
2022-12-18T10:15:40.000Z,8.36
2022-12-18T10:19:03.684Z,9.01
2022-12-18T10:22:18.889Z,8.76
2022-12-18T10:25:25.891Z,8.26
2022-12-18T10:28:31.298Z,8.66
2022-12-18T10:31:33.915Z,9.49
2022-12-18T10:34:36.529Z,10.27
2022-12-18T10:38:06.913Z,9.91
2022-12-18T10:41:29.445Z,10.00
2022-12-18T10:44:33.468Z,10.26
2022-12-18T10:47:36.316Z,9.14
2022-12-18T10:54:04.675Z,8.71
2022-12-18T10:57:16.826Z,9.24
2022-12-18T11:00:31.353Z,8.87
2022-12-18T11:03:39.213Z,8.40
2022-12-18T11:06:55.302Z,8.56
2022-12-18T11:10:02.102Z,8.61
2022-12-18T11:13:19.690Z,9.13
2022-12-18T11:16:24.896Z,9.16
2022-12-18T11:19:33.092Z,9.67
2022-12-18T11:22:39.206Z,10.01
2022-12-18T11:25:53.273Z,10.56
2022-12-18T11:29:10.797Z,11.19
2022-12-18T11:32:30.893Z,11.19
2022-12-18T11:35:48.077Z,11.02
2022-12-18T11:38:54.396Z,9.48
2022-12-18T11:42:10.157Z,10.16
2022-12-18T11:45:28.644Z,10.45
2022-12-18T11:48:37.688Z,10.45
2022-12-18T11:51:48.412Z,11.12
2022-12-18T11:54:53.550Z,11.54
2022-12-18T11:58:04.253Z,11.76
2022-12-18T12:01:17.748Z,12.07
2022-12-18T12:04:40.254Z,11.13
2022-12-18T12:07:53.012Z,11.70
2022-12-18T12:11:06.998Z,11.40
2022-12-18T12:14:41.861Z,11.73
2022-12-18T12:17:53.788Z,11.66
2022-12-18T12:21:07.290Z,12.63
2022-12-18T12:24:24.634Z,12.96
2022-12-18T12:27:37.746Z,12.72
2022-12-18T12:30:53.972Z,10.72
2022-12-18T12:34:06.047Z,9.92
2022-12-18T12:37:25.303Z,9.88
2022-12-18T12:41:02.813Z,9.36
2022-12-18T12:43:57.163Z,8.74
2022-12-18T12:47:07.989Z,8.85
2022-12-18T12:50:16.131Z,8.92
2022-12-18T12:53:30.136Z,8.62
2022-12-18T12:56:41.020Z,8.53
2022-12-18T12:59:53.419Z,8.46
2022-12-18T13:03:04.776Z,8.57
2022-12-18T13:06:13.845Z,8.31
2022-12-18T13:09:18.553Z,8.35
2022-12-18T13:12:39.788Z,8.33
2022-12-18T13:15:46.207Z,8.09
2022-12-18T13:18:51.571Z,7.90
2022-12-18T13:21:56.006Z,7.68
2022-12-18T13:25:00.874Z,7.56
2022-12-18T13:28:07.614Z,6.77
2022-12-18T13:31:10.238Z,6.61
2022-12-18T13:34:27.413Z,6.69
2022-12-18T13:37:44.060Z,7.07
2022-12-18T13:40:58.763Z,7.07
2022-12-18T13:44:12.870Z,6.67
2022-12-18T13:47:29.207Z,6.76
2022-12-18T13:50:35.879Z,6.71
2022-12-18T13:53:44.375Z,6.41
2022-12-18T13:56:50.400Z,6.16
2022-12-18T13:59:53.581Z,6.18
2022-12-18T14:02:56.837Z,5.95
2022-12-18T14:06:03.520Z,5.45
2022-12-18T14:09:06.338Z,5.07
2022-12-18T14:12:40.104Z,4.58
2022-12-18T14:15:47.500Z,4.23
2022-12-18T14:18:58.144Z,4.02
2022-12-18T14:22:05.592Z,3.90
2022-12-18T14:25:19.993Z,3.72
2022-12-18T14:28:24.663Z,3.67
2022-12-18T14:31:30.379Z,3.49
2022-12-18T14:34:32.991Z,3.30
2022-12-18T14:37:35.505Z,2.92
2022-12-18T14:40:38.114Z,2.78
2022-12-18T14:43:44.404Z,2.64
2022-12-18T14:46:48.616Z,2.53
2022-12-18T14:49:51.448Z,2.72
2022-12-18T14:52:54.095Z,2.53
2022-12-18T14:55:56.939Z,2.32
2022-12-18T14:59:04.344Z,2.21
2022-12-18T15:02:18.053Z,2.02
2022-12-18T15:05:25.567Z,1.89
2022-12-18T15:08:36.632Z,1.67
2022-12-18T15:11:47.199Z,1.58
2022-12-18T15:14:51.109Z,1.39
2022-12-18T15:18:05.083Z,1.22
2022-12-18T15:21:10.612Z,1.15
2022-12-18T15:24:19.059Z,1.08
2022-12-18T15:27:25.386Z,1.07
2022-12-18T15:30:29.725Z,1.04
2022-12-18T15:33:34.895Z,0.91
2022-12-18T15:36:37.584Z,0.84
2022-12-18T15:39:40.357Z,0.81
2022-12-18T15:43:02.643Z,0.72
2022-12-18T15:46:10.847Z,0.55
2022-12-18T15:49:32.161Z,0.46
2022-12-18T15:52:41.235Z,0.32
2022-12-18T15:56:03.852Z,0.25
2022-12-18T15:59:12.208Z,0.06
2022-12-18T16:02:19.165Z,-0.03
2022-12-18T16:05:26.933Z,-0.08
2022-12-18T16:08:30.857Z,-0.10
2022-12-18T16:11:40.099Z,-0.18
2022-12-18T16:14:42.923Z,-0.15
2022-12-18T16:17:47.913Z,-0.19
2022-12-18T16:20:50.663Z,-0.23
2022-12-18T16:23:53.495Z,-0.29
2022-12-18T16:26:58.689Z,-0.39
2022-12-18T16:30:01.298Z,-0.42
2022-12-18T16:33:05.853Z,-0.44
2022-12-18T16:36:10.403Z,-0.49
2022-12-18T16:39:12.928Z,-0.58
2022-12-18T16:42:20.003Z,-0.60
2022-12-18T16:45:23.281Z,-0.62
2022-12-18T16:48:30.243Z,-0.65
2022-12-18T16:51:37.096Z,-0.64
2022-12-18T16:54:40.328Z,-0.61
2022-12-18T16:57:43.172Z,-0.58
2022-12-18T17:00:46.064Z,-0.57
2022-12-18T17:03:56.102Z,-0.67
2022-12-18T17:06:59.024Z,-0.68
2022-12-18T17:10:01.851Z,-0.79
2022-12-18T17:13:04.610Z,-0.73
2022-12-18T17:16:08.199Z,-0.75
2022-12-18T17:19:17.096Z,-0.78
2022-12-18T17:22:20.630Z,-0.81
2022-12-18T17:25:23.562Z,-0.89
2022-12-18T17:28:28.543Z,-0.95
2022-12-18T17:31:31.806Z,-0.98
2022-12-18T17:34:37.048Z,-0.97
2022-12-18T17:37:40.043Z,-0.96
2022-12-18T17:40:46.206Z,-0.99
2022-12-18T17:43:51.921Z,-0.98
2022-12-18T17:46:54.795Z,-1.03
2022-12-18T17:49:59.113Z,-1.08
2022-12-18T17:53:02.156Z,-1.17
2022-12-18T17:56:06.374Z,-1.22
2022-12-18T17:59:10.885Z,-1.28
2022-12-18T18:02:13.764Z,-1.29
2022-12-18T18:05:18.274Z,-1.27
2022-12-18T18:08:20.809Z,-1.27
2022-12-18T18:11:43.695Z,-1.13
2022-12-18T18:14:46.339Z,-1.12
2022-12-18T18:17:49.479Z,-1.25
2022-12-18T18:20:54.059Z,-1.22
2022-12-18T18:24:00.082Z,-1.23
2022-12-18T18:27:02.955Z,-1.33
2022-12-18T18:30:07.783Z,-1.34
2022-12-18T18:33:12.149Z,-1.41
2022-12-18T18:36:16.459Z,-1.44
2022-12-18T18:39:19.549Z,-1.43
2022-12-18T18:42:22.279Z,-1.48
2022-12-18T18:45:24.878Z,-1.52
2022-12-18T18:48:29.781Z,-1.54
2022-12-18T18:51:36.400Z,-1.47
2022-12-18T18:54:51.923Z,-1.42
2022-12-18T18:58:02.491Z,-1.40
2022-12-18T19:01:10.422Z,-1.41
2022-12-18T19:04:13.433Z,-1.46
2022-12-18T19:07:24.318Z,-1.51
2022-12-18T19:10:33.470Z,-1.52
2022-12-18T19:13:36.293Z,-1.58
2022-12-18T19:16:39.959Z,-1.64
2022-12-18T19:19:43.047Z,-1.56
2022-12-18T19:22:50.723Z,-1.62
2022-12-18T19:26:16.964Z,-1.66
2022-12-18T19:29:23.056Z,-1.66
2022-12-18T19:32:26.076Z,-1.68
2022-12-18T19:35:29.791Z,-1.70
2022-12-18T19:38:34.403Z,-1.70
2022-12-18T19:41:36.990Z,-1.81
2022-12-18T19:44:41.463Z,-1.78
2022-12-18T19:47:44.162Z,-1.68
2022-12-18T19:50:46.742Z,-1.76
2022-12-18T19:53:56.615Z,-1.87
2022-12-18T19:57:02.550Z,-1.86
2022-12-18T20:00:06.091Z,-1.85
2022-12-18T20:03:25.314Z,-1.89
2022-12-18T20:06:45.301Z,-1.82
2022-12-18T20:09:53.899Z,-1.89
2022-12-18T20:13:02.547Z,-1.98
2022-12-18T20:16:05.625Z,-1.80
2022-12-18T20:19:09.678Z,-1.85
2022-12-18T20:22:12.473Z,-1.86
2022-12-18T20:25:16.886Z,-1.85
2022-12-18T20:28:19.774Z,-1.81
2022-12-18T20:31:22.725Z,-1.87
2022-12-18T20:34:25.469Z,-1.86
2022-12-18T20:37:28.933Z,-1.87
2022-12-18T20:40:35.875Z,-1.95
2022-12-18T20:43:39.201Z,-2.10
2022-12-18T20:46:42.358Z,-1.97
2022-12-18T20:49:45.247Z,-1.96
2022-12-18T20:52:48.743Z,-1.92
2022-12-18T20:55:52.730Z,-1.97
2022-12-18T20:58:56.804Z,-1.97
2022-12-18T21:01:59.887Z,-2.01
2022-12-18T21:05:02.684Z,-2.05
2022-12-18T21:08:05.732Z,-1.96
2022-12-18T21:11:43.620Z,-1.94
2022-12-18T21:14:46.391Z,-1.93
2022-12-18T21:17:50.836Z,-2.08
2022-12-18T21:20:53.417Z,-2.07
2022-12-18T21:23:56.124Z,-2.21
2022-12-18T21:27:00.052Z,-2.21
2022-12-18T21:30:03.009Z,-2.19
2022-12-18T21:33:05.799Z,-2.19
2022-12-18T21:36:09.700Z,-2.10
2022-12-18T21:39:12.764Z,-2.10
2022-12-18T21:42:35.058Z,-1.75
2022-12-18T21:45:37.538Z,-1.57
2022-12-18T21:48:40.657Z,-1.59
2022-12-18T21:51:43.722Z,-1.82
2022-12-18T21:54:46.370Z,-1.93
2022-12-18T21:57:50.306Z,-2.07
2022-12-18T22:00:53.063Z,-2.15
2022-12-18T22:03:55.720Z,-2.07
2022-12-18T22:06:58.382Z,-2.09
2022-12-18T22:10:02.084Z,-2.05
2022-12-18T22:13:08.679Z,-2.11
2022-12-18T22:16:11.275Z,-2.15
2022-12-18T22:19:14.161Z,-2.16
2022-12-18T22:22:17.529Z,-2.15
2022-12-18T22:25:20.099Z,-2.17
2022-12-18T22:28:42.963Z,-2.19
2022-12-18T22:31:45.754Z,-2.29
2022-12-18T22:34:48.401Z,-2.25
2022-12-18T22:37:51.033Z,-2.33
2022-12-18T22:40:54.816Z,-2.33
2022-12-18T22:43:58.830Z,-2.35
2022-12-18T22:47:06.928Z,-2.34
2022-12-18T22:50:11.935Z,-2.38
2022-12-18T22:53:14.484Z,-2.46
2022-12-18T22:56:21.283Z,-2.39
2022-12-18T22:59:26.960Z,-2.42
2022-12-18T23:02:29.658Z,-2.47
2022-12-18T23:05:32.366Z,-2.51
2022-12-18T23:08:35.152Z,-2.54
2022-12-18T23:11:37.802Z,-2.52
2022-12-18T23:14:41.816Z,-2.43
2022-12-18T23:17:44.348Z,-2.42
2022-12-18T23:20:46.952Z,-2.48
2022-12-18T23:23:50.484Z,-2.54
2022-12-18T23:26:53.017Z,-2.73
2022-12-18T23:29:56.934Z,-2.68
2022-12-18T23:33:01.343Z,-2.65
2022-12-18T23:36:04.989Z,-2.69
2022-12-18T23:39:07.601Z,-2.77
2022-12-18T23:42:10.111Z,-2.77
2022-12-18T23:45:17.522Z,-2.76
2022-12-18T23:48:21.209Z,-2.75
2022-12-18T23:51:25.656Z,-2.76
2022-12-18T23:54:33.102Z,-2.80
2022-12-18T23:57:36.171Z,-2.78
